createdAt,value
2023-03-22T00:01:49.004Z,10.64
2023-03-22T00:04:18.373Z,10.63
2023-03-22T00:06:46.406Z,10.66
2023-03-22T00:09:14.440Z,10.64
2023-03-22T00:11:42.493Z,10.67
2023-03-22T00:14:10.731Z,10.62
2023-03-22T00:16:38.749Z,10.59
2023-03-22T00:19:06.933Z,10.63
2023-03-22T00:21:36.291Z,10.63
2023-03-22T00:24:04.520Z,10.65
2023-03-22T00:26:32.494Z,10.69
2023-03-22T00:29:01.005Z,10.64
2023-03-22T00:31:29.012Z,10.74
2023-03-22T00:33:57.185Z,10.67
2023-03-22T00:36:25.221Z,10.63
2023-03-22T00:38:54.746Z,10.69
2023-03-22T00:41:24.217Z,10.65
2023-03-22T00:43:52.439Z,10.72
2023-03-22T00:46:22.836Z,10.67
2023-03-22T00:48:50.860Z,10.67
2023-03-22T00:51:19.101Z,10.67
2023-03-22T00:53:49.648Z,10.65
2023-03-22T00:56:19.556Z,10.71
2023-03-22T00:58:57.040Z,10.65
2023-03-22T01:01:25.063Z,10.67
2023-03-22T01:03:53.252Z,10.68
2023-03-22T01:06:22.056Z,10.65
2023-03-22T01:08:50.824Z,10.68
2023-03-22T01:11:20.418Z,10.60
2023-03-22T01:13:49.009Z,10.68
2023-03-22T01:16:17.527Z,10.69
2023-03-22T01:18:46.146Z,10.68
2023-03-22T01:21:14.443Z,10.62
2023-03-22T01:23:42.802Z,10.69
2023-03-22T01:26:11.130Z,10.69
2023-03-22T01:28:41.150Z,10.60
2023-03-22T01:31:09.267Z,10.58
2023-03-22T01:33:37.806Z,10.65
2023-03-22T01:36:06.937Z,10.70
2023-03-22T01:38:36.555Z,10.63
2023-03-22T01:41:04.763Z,10.63
2023-03-22T01:43:35.874Z,10.60
2023-03-22T01:46:05.885Z,10.58
2023-03-22T01:48:36.370Z,10.60
2023-03-22T01:51:09.357Z,10.59
2023-03-22T01:54:01.521Z,10.63
2023-03-22T01:56:34.607Z,10.64
2023-03-22T01:59:04.017Z,10.62
2023-03-22T02:01:50.088Z,10.59
2023-03-22T02:04:23.465Z,10.60
2023-03-22T02:06:54.130Z,10.60
2023-03-22T02:09:22.897Z,10.58
2023-03-22T02:12:02.744Z,10.64
2023-03-22T02:14:46.318Z,10.67
2023-03-22T02:17:42.543Z,10.70
2023-03-22T02:20:48.056Z,10.72
2023-03-22T02:24:07.666Z,10.68
2023-03-22T02:27:16.349Z,10.62
2023-03-22T02:29:48.177Z,10.68
2023-03-22T02:32:39.343Z,10.57
2023-03-22T02:35:22.061Z,10.61
2023-03-22T02:38:25.889Z,10.61
2023-03-22T02:41:04.652Z,10.53
2023-03-22T02:43:38.590Z,10.56
2023-03-22T02:46:11.071Z,10.49
2023-03-22T02:48:46.329Z,10.47
2023-03-22T02:51:19.132Z,10.51
2023-03-22T02:53:53.335Z,10.53
2023-03-22T02:56:26.353Z,10.47
2023-03-22T02:58:57.433Z,10.48
2023-03-22T03:01:27.596Z,10.44
2023-03-22T03:03:59.912Z,10.46
2023-03-22T03:06:31.131Z,10.39
2023-03-22T03:09:02.748Z,10.45
2023-03-22T03:11:32.989Z,10.42
2023-03-22T03:14:01.631Z,10.47
2023-03-22T03:16:36.643Z,10.52
2023-03-22T03:19:12.510Z,10.46
2023-03-22T03:21:51.814Z,10.49
2023-03-22T03:24:28.728Z,10.49
2023-03-22T03:27:03.590Z,10.48
2023-03-22T03:29:39.888Z,10.51
2023-03-22T03:32:11.937Z,10.49
2023-03-22T03:34:49.530Z,10.47
2023-03-22T03:41:51.330Z,10.44
2023-03-22T03:44:22.197Z,10.48
2023-03-22T03:46:51.679Z,10.48
2023-03-22T03:49:22.980Z,10.39
2023-03-22T03:51:53.440Z,10.43
2023-03-22T03:54:21.728Z,10.40
2023-03-22T03:56:50.966Z,10.34
2023-03-22T03:59:20.966Z,10.42
2023-03-22T04:01:51.859Z,10.35
2023-03-22T04:04:28.886Z,10.42
2023-03-22T04:07:04.317Z,10.41
2023-03-22T04:09:35.096Z,10.38
2023-03-22T04:12:13.739Z,10.38
2023-03-22T04:14:45.062Z,10.44
2023-03-22T04:17:47.010Z,10.41
2023-03-22T04:20:16.943Z,10.38
2023-03-22T04:22:46.852Z,10.42
2023-03-22T04:25:18.265Z,10.37
2023-03-22T04:27:56.334Z,10.34
2023-03-22T04:30:27.564Z,10.34
2023-03-22T04:33:07.004Z,10.32
2023-03-22T04:36:49.773Z,10.28
2023-03-22T04:39:24.616Z,10.30
2023-03-22T04:42:11.770Z,10.29
2023-03-22T04:44:40.983Z,10.27
2023-03-22T04:48:25.492Z,10.34
2023-03-22T04:51:43.670Z,10.28
2023-03-22T04:54:36.829Z,10.26
2023-03-22T04:57:30.821Z,10.30
2023-03-22T04:59:58.847Z,10.26
2023-03-22T05:02:26.974Z,10.20
2023-03-22T05:04:55.498Z,10.27
2023-03-22T05:07:40.266Z,10.25
2023-03-22T05:10:12.074Z,10.24
2023-03-22T05:12:41.162Z,10.28
2023-03-22T05:15:41.775Z,10.26
2023-03-22T05:18:10.876Z,10.20
2023-03-22T05:20:39.722Z,10.25
2023-03-22T05:23:13.544Z,10.18
2023-03-22T05:25:46.782Z,10.18
2023-03-22T05:28:19.574Z,10.15
2023-03-22T05:30:57.185Z,10.16
2023-03-22T05:33:35.596Z,10.19
2023-03-22T05:36:04.831Z,10.16
2023-03-22T05:38:38.486Z,10.20
2023-03-22T05:41:36.536Z,10.17
2023-03-22T05:44:05.406Z,10.10
2023-03-22T05:46:34.471Z,10.15
2023-03-22T05:49:21.622Z,10.13
2023-03-22T05:51:50.631Z,10.14
2023-03-22T05:54:19.399Z,10.12
2023-03-22T05:56:55.328Z,10.15
2023-03-22T05:59:23.901Z,10.11
2023-03-22T06:01:52.199Z,10.11
2023-03-22T06:04:24.127Z,10.12
2023-03-22T06:07:09.802Z,10.14
2023-03-22T06:09:43.024Z,10.12
2023-03-22T06:12:18.665Z,10.13
2023-03-22T06:14:51.711Z,10.13
2023-03-22T06:18:53.706Z,10.12
2023-03-22T06:21:22.050Z,10.17
2023-03-22T06:23:50.125Z,10.12
2023-03-22T06:26:18.221Z,10.16
2023-03-22T06:28:48.230Z,10.13
2023-03-22T06:31:16.459Z,10.07
2023-03-22T06:34:04.524Z,10.13
2023-03-22T06:36:48.350Z,10.13
2023-03-22T06:46:43.689Z,10.12
2023-03-22T06:49:59.509Z,10.16
2023-03-22T06:53:16.337Z,10.18
2023-03-22T06:56:24.306Z,10.13
2023-03-22T06:59:14.914Z,10.19
2023-03-22T07:01:52.175Z,10.21
2023-03-22T07:04:39.250Z,10.25
2023-03-22T07:07:27.745Z,10.28
2023-03-22T07:13:30.906Z,10.28
2023-03-22T07:16:43.652Z,10.30
2023-03-22T07:19:22.702Z,10.33
2023-03-22T07:22:01.565Z,10.33
2023-03-22T07:24:57.718Z,10.39
2023-03-22T07:31:28.478Z,10.45
2023-03-22T07:35:43.496Z,10.47
2023-03-22T07:38:18.938Z,10.46
2023-03-22T07:44:54.004Z,10.53
2023-03-22T07:47:47.883Z,10.53
2023-03-22T07:50:48.144Z,10.56
2023-03-22T07:53:46.262Z,10.55
2023-03-22T07:56:49.798Z,10.62
2023-03-22T07:59:46.987Z,10.68
2023-03-22T08:03:16.644Z,10.70
2023-03-22T08:06:24.490Z,10.74
2023-03-22T08:09:08.530Z,10.78
2023-03-22T08:14:58.759Z,10.84
2023-03-22T08:18:09.851Z,10.80
2023-03-22T08:26:20.148Z,10.87
2023-03-22T08:46:28.385Z,11.06
2023-03-22T08:49:39.577Z,11.15
2023-03-22T09:27:15.452Z,11.25
2023-03-22T09:30:37.595Z,11.30
2023-03-22T09:36:36.750Z,11.32
2023-03-22T09:40:11.331Z,11.32
2023-03-22T09:43:56.135Z,11.31
2023-03-22T09:50:56.747Z,11.49
2023-03-22T09:54:00.355Z,11.67
2023-03-22T09:57:59.504Z,11.76
2023-03-22T10:05:40.773Z,11.90
2023-03-22T10:13:32.309Z,11.99
2023-03-22T10:20:58.360Z,12.09
2023-03-22T10:27:22.723Z,12.17
2023-03-22T10:34:46.978Z,12.22
2023-03-22T10:46:30.256Z,12.29
2023-03-22T10:59:27.594Z,12.33
2023-03-22T11:03:05.457Z,12.55
2023-03-22T11:07:00.133Z,12.82
2023-03-22T11:13:19.788Z,12.93
2023-03-22T11:33:28.244Z,13.62
2023-03-22T11:35:59.559Z,13.67
2023-03-22T11:38:30.818Z,13.76
2023-03-22T11:41:02.889Z,13.90
2023-03-22T11:43:35.853Z,13.95
2023-03-22T11:46:05.060Z,14.02
2023-03-22T11:48:34.351Z,13.97
2023-03-22T11:51:09.991Z,13.87
2023-03-22T11:53:41.272Z,14.25
2023-03-22T11:56:12.582Z,14.33
2023-03-22T11:58:56.338Z,14.28
2023-03-22T12:01:34.306Z,13.99
2023-03-22T12:04:04.889Z,14.48
2023-03-22T12:06:37.909Z,14.60
2023-03-22T12:09:12.011Z,14.85
2023-03-22T12:11:42.486Z,15.01
2023-03-22T12:14:20.316Z,14.90
2023-03-22T12:16:52.015Z,14.73
2023-03-22T12:19:34.167Z,14.75
2023-03-22T12:22:03.729Z,14.73
2023-03-22T12:24:33.323Z,14.79
2023-03-22T12:27:05.650Z,15.01
2023-03-22T12:29:35.006Z,14.86
2023-03-22T12:32:08.444Z,14.91
2023-03-22T12:34:41.901Z,14.86
2023-03-22T12:37:19.078Z,14.74
2023-03-22T12:39:51.721Z,14.99
2023-03-22T12:42:25.247Z,14.79
2023-03-22T12:45:05.139Z,14.84
2023-03-22T12:47:41.899Z,14.82
2023-03-22T12:50:14.961Z,14.87
2023-03-22T12:52:47.253Z,14.83
2023-03-22T12:55:23.710Z,15.14
2023-03-22T12:57:52.418Z,14.84
2023-03-22T13:00:22.308Z,15.26
2023-03-22T13:02:58.291Z,15.61
2023-03-22T13:05:30.073Z,16.01
2023-03-22T13:08:05.444Z,15.72
2023-03-22T13:11:06.778Z,15.56
2023-03-22T13:13:42.938Z,15.63
2023-03-22T13:16:49.591Z,15.68
2023-03-22T13:19:53.588Z,15.61
2023-03-22T13:22:27.030Z,15.32
2023-03-22T13:25:13.641Z,15.51
2023-03-22T13:27:51.372Z,15.50
2023-03-22T13:30:25.918Z,15.20
2023-03-22T13:32:56.694Z,15.20
2023-03-22T13:35:28.278Z,15.02
2023-03-22T13:38:03.273Z,15.01
2023-03-22T13:40:37.501Z,15.03
2023-03-22T13:43:13.991Z,14.95
2023-03-22T13:46:03.670Z,14.82
2023-03-22T13:48:41.441Z,14.70
2023-03-22T13:51:13.488Z,14.78
2023-03-22T13:53:45.663Z,14.73
2023-03-22T13:56:15.671Z,14.56
2023-03-22T13:58:54.046Z,14.51
2023-03-22T14:01:29.787Z,14.37
2023-03-22T14:04:02.272Z,14.19
2023-03-22T14:06:36.145Z,14.14
2023-03-22T14:09:13.361Z,14.22
2023-03-22T14:11:50.639Z,14.09
2023-03-22T14:14:23.233Z,13.96
2023-03-22T14:16:56.449Z,13.95
2023-03-22T14:19:28.473Z,13.90
